createdAt,value
2022-09-01T05:00:35.514Z,2.30
2022-09-01T05:03:04.126Z,2.70
2022-09-01T05:05:44.941Z,2.90
2022-09-01T05:08:23.554Z,2.90
2022-09-01T05:10:55.280Z,3.80
2022-09-01T05:13:24.055Z,3.90
2022-09-01T05:16:05.773Z,3.90
2022-09-01T05:18:33.930Z,2.70
2022-09-01T05:21:09.769Z,2.90
2022-09-01T05:23:40.328Z,2.60
2022-09-01T05:26:31.432Z,2.60
2022-09-01T05:29:03.248Z,3.70
2022-09-01T05:31:34.445Z,4.70
2022-09-01T05:34:03.169Z,5.20
2022-09-01T05:36:33.191Z,3.10
2022-09-01T05:39:02.009Z,2.90
2022-09-01T05:41:29.690Z,3.10
2022-09-01T05:44:00.539Z,2.20
2022-09-01T05:46:29.568Z,2.90
2022-09-01T05:48:57.671Z,2.90
2022-09-01T05:51:44.031Z,2.60
2022-09-01T05:54:14.047Z,2.40
2022-09-01T05:56:43.944Z,3.60
2022-09-01T05:59:24.000Z,3.00
2022-09-01T06:01:54.425Z,2.70
2022-09-01T06:04:27.688Z,2.40
2022-09-01T06:07:15.711Z,2.80
2022-09-01T06:09:48.469Z,2.40
2022-09-01T06:12:19.768Z,2.60
2022-09-01T06:14:49.540Z,2.70
2022-09-01T06:17:24.517Z,2.60
2022-09-01T06:19:57.816Z,2.50
2022-09-01T06:22:28.949Z,2.10
2022-09-01T06:25:01.160Z,2.00
2022-09-01T06:27:30.314Z,2.50
2022-09-01T06:29:58.122Z,2.40
2022-09-01T06:32:26.990Z,2.10
2022-09-01T06:34:57.810Z,1.90
2022-09-01T06:37:25.478Z,2.80
2022-09-01T06:39:52.926Z,2.20
2022-09-01T06:42:22.859Z,2.20
2022-09-01T06:44:50.511Z,2.00
2022-09-01T06:47:19.290Z,2.50
2022-09-01T06:49:46.648Z,2.00
2022-09-01T06:52:15.768Z,2.00
2022-09-01T06:54:44.252Z,2.40
2022-09-01T07:00:00.251Z,1.90
2022-09-01T07:02:30.052Z,2.20
2022-09-01T07:05:02.840Z,2.00
2022-09-01T07:10:26.051Z,1.80
2022-09-01T07:13:12.924Z,1.90
2022-09-01T07:18:31.788Z,1.90
2022-09-01T07:24:07.873Z,1.60
2022-09-01T07:26:46.293Z,1.70
2022-09-01T07:29:18.188Z,1.70
2022-09-01T07:34:38.830Z,1.90
2022-09-01T07:39:55.968Z,1.70
2022-09-01T07:42:56.478Z,2.20
2022-09-01T07:45:29.310Z,1.90
2022-09-01T07:48:02.828Z,2.00
2022-09-01T07:50:41.361Z,2.00
2022-09-01T07:53:23.069Z,1.50
2022-09-01T07:55:53.327Z,1.60
2022-09-01T07:58:24.508Z,1.60
2022-09-01T08:00:54.188Z,1.40
2022-09-01T08:03:25.853Z,1.80
2022-09-01T08:05:57.695Z,1.50
2022-09-01T08:08:29.084Z,1.60
2022-09-01T08:11:04.943Z,1.50
2022-09-01T08:13:41.634Z,1.50
2022-09-01T08:16:19.277Z,1.10
2022-09-01T08:18:49.571Z,1.20
2022-09-01T08:21:22.988Z,1.40
2022-09-01T08:23:53.759Z,1.30
2022-09-01T08:26:26.429Z,1.40
2022-09-01T08:28:56.001Z,1.00
2022-09-01T08:31:25.996Z,1.20
2022-09-01T08:33:59.810Z,1.00
2022-09-01T08:36:27.742Z,1.30
2022-09-01T08:38:55.406Z,1.70
2022-09-01T08:41:46.879Z,1.50
2022-09-01T08:44:50.728Z,1.60
2022-09-01T08:47:28.842Z,1.00
2022-09-01T08:50:00.131Z,1.40
2022-09-01T08:52:38.717Z,1.50
2022-09-01T08:55:11.167Z,1.20
2022-09-01T08:57:43.797Z,1.90
2022-09-01T09:00:17.931Z,1.30
2022-09-01T09:03:40.425Z,1.80
2022-09-01T09:06:21.841Z,1.50
2022-09-01T09:08:57.601Z,1.50
2022-09-01T09:11:41.509Z,1.60
2022-09-01T09:14:50.529Z,1.70
2022-09-01T09:17:25.977Z,1.50
2022-09-01T09:19:54.349Z,1.40
2022-09-01T09:22:22.379Z,1.10
2022-09-01T09:25:00.238Z,1.40
2022-09-01T09:27:36.002Z,1.20
2022-09-01T09:30:27.908Z,1.10
2022-09-01T09:35:54.112Z,1.10
2022-09-01T09:38:29.174Z,1.10
2022-09-01T09:41:27.443Z,1.10
2022-09-01T09:44:05.591Z,1.30
2022-09-01T09:46:39.901Z,1.20
2022-09-01T09:49:34.896Z,1.20
2022-09-01T09:52:08.617Z,1.30
2022-09-01T09:54:57.790Z,1.20
2022-09-01T09:57:25.648Z,1.30
2022-09-01T10:00:00.652Z,1.20
2022-09-01T10:02:34.597Z,1.30
2022-09-01T10:05:27.689Z,1.50
2022-09-01T10:07:58.070Z,1.30
2022-09-01T10:10:57.747Z,1.20
2022-09-01T10:13:33.572Z,1.50
2022-09-01T10:16:21.926Z,1.50
2022-09-01T10:18:52.059Z,1.30
2022-09-01T10:21:30.530Z,0.90
2022-09-01T10:24:20.585Z,2.80
2022-09-01T10:26:55.848Z,0.90
2022-09-01T10:29:48.583Z,1.00
2022-09-01T10:32:42.149Z,1.00
2022-09-01T10:35:34.410Z,1.20
2022-09-01T10:38:11.962Z,1.00
2022-09-01T10:40:50.283Z,1.10
2022-09-01T10:43:36.286Z,1.30
2022-09-01T10:46:25.915Z,0.90
2022-09-01T10:49:03.236Z,1.00
2022-09-01T10:51:36.274Z,0.90
2022-09-01T10:54:06.755Z,1.20
2022-09-01T10:56:51.422Z,1.30
2022-09-01T10:59:44.062Z,2.30
2022-09-01T11:02:24.990Z,1.20
2022-09-01T11:05:00.578Z,1.00
2022-09-01T11:08:00.379Z,0.90
2022-09-01T11:10:47.569Z,0.70
2022-09-01T11:13:50.153Z,0.90
2022-09-01T11:16:48.124Z,1.20
2022-09-01T11:19:47.960Z,1.00
2022-09-01T11:22:26.453Z,1.00
2022-09-01T11:25:40.622Z,0.80
2022-09-01T11:28:41.906Z,1.10
2022-09-01T11:31:09.309Z,0.80
2022-09-01T11:34:23.473Z,1.00
2022-09-01T11:37:01.217Z,0.60
2022-09-01T11:39:41.029Z,0.80
2022-09-01T11:42:19.229Z,1.30
2022-09-01T11:45:00.191Z,0.80
2022-09-01T11:47:36.246Z,0.70
2022-09-01T11:50:20.120Z,0.80
2022-09-01T11:53:22.490Z,0.70
2022-09-01T11:55:54.575Z,0.70
2022-09-01T11:58:28.747Z,0.60
2022-09-01T12:01:11.988Z,0.60
2022-09-01T12:03:40.765Z,1.00
2022-09-01T12:06:18.172Z,0.70
2022-09-01T12:08:58.948Z,0.80
2022-09-01T12:11:32.728Z,0.80
2022-09-01T12:14:11.884Z,0.70
2022-09-01T12:16:44.690Z,0.70
2022-09-01T12:19:26.838Z,0.80
2022-09-01T12:22:23.189Z,0.90
2022-09-01T12:24:54.528Z,0.90
2022-09-01T12:27:25.499Z,0.80
2022-09-01T12:29:53.548Z,0.80
2022-09-01T12:32:21.892Z,0.70
2022-09-01T12:35:11.133Z,1.30
2022-09-01T12:37:39.169Z,0.90
2022-09-01T12:40:35.586Z,1.30
2022-09-01T12:43:03.888Z,1.60
2022-09-01T12:45:45.829Z,1.10
2022-09-01T12:48:33.512Z,0.80
2022-09-01T12:51:29.240Z,0.90
2022-09-01T12:54:04.803Z,0.60
2022-09-01T12:56:35.919Z,0.70
2022-09-01T12:59:15.882Z,1.00
2022-09-01T13:01:45.093Z,0.80
2022-09-01T13:04:14.727Z,0.60
2022-09-01T13:06:42.557Z,0.90
2022-09-01T13:09:10.399Z,0.70
2022-09-01T13:14:27.247Z,0.60
2022-09-01T13:16:55.331Z,0.80
2022-09-01T13:19:28.780Z,0.80
2022-09-01T13:21:58.827Z,0.80
2022-09-01T13:24:30.247Z,0.90
2022-09-01T13:29:47.328Z,0.60
2022-09-01T13:32:19.244Z,0.90
2022-09-01T13:34:53.853Z,0.90
2022-09-01T13:37:22.589Z,1.20
2022-09-01T13:39:50.888Z,0.70
2022-09-01T13:42:19.250Z,0.80
2022-09-01T13:44:49.626Z,0.70
2022-09-01T13:47:32.472Z,0.90
2022-09-01T13:50:10.537Z,1.00
2022-09-01T13:52:46.647Z,0.80
2022-09-01T13:55:30.708Z,0.70
2022-09-01T13:57:59.029Z,0.70
2022-09-01T14:00:32.283Z,1.00
2022-09-01T14:03:04.604Z,0.80
2022-09-01T14:05:37.569Z,0.80
2022-09-01T14:08:06.668Z,1.10
2022-09-01T14:10:41.979Z,0.80
2022-09-01T14:13:11.071Z,0.70
2022-09-01T14:15:39.228Z,0.70
2022-09-01T14:18:07.309Z,1.00
2022-09-01T14:20:41.568Z,1.10
2022-09-01T14:23:10.833Z,0.60
2022-09-01T14:25:48.190Z,0.90
2022-09-01T14:28:20.449Z,0.80
2022-09-01T14:33:18.687Z,1.00
2022-09-01T14:35:48.191Z,1.00
2022-09-01T14:38:17.068Z,1.00
2022-09-01T14:40:48.656Z,0.40
2022-09-01T14:43:16.289Z,0.80
2022-09-01T14:45:46.807Z,0.70
2022-09-01T14:48:20.149Z,0.90
2022-09-01T14:50:49.688Z,1.70
2022-09-01T14:53:17.435Z,0.70
2022-09-01T14:55:46.689Z,0.70
2022-09-01T14:58:14.468Z,1.60
2022-09-01T15:00:43.868Z,2.20
2022-09-01T15:03:11.629Z,0.90
2022-09-01T15:05:40.528Z,0.70
2022-09-01T15:08:15.490Z,1.90
2022-09-01T15:10:45.568Z,1.40
2022-09-01T15:13:13.949Z,1.20
2022-09-01T15:15:46.628Z,2.70
2022-09-01T15:18:17.419Z,1.30
2022-09-01T15:20:47.049Z,0.70
2022-09-01T15:23:26.980Z,1.50
2022-09-01T15:25:58.959Z,1.20
2022-09-01T15:28:32.989Z,1.70
2022-09-01T15:31:03.395Z,1.40
2022-09-01T15:33:38.423Z,0.80
2022-09-01T15:36:16.349Z,1.60
2022-09-01T15:38:50.460Z,0.70
2022-09-01T15:41:48.130Z,1.00
2022-09-01T15:44:20.658Z,0.90
2022-09-01T15:46:51.902Z,0.70
2022-09-01T15:58:05.262Z,0.70
2022-09-01T16:00:33.995Z,0.70
2022-09-01T16:03:03.348Z,0.70
2022-09-01T16:05:36.588Z,0.90
2022-09-01T16:08:09.330Z,0.60
2022-09-01T16:10:42.108Z,0.70
2022-09-01T16:13:11.308Z,0.90
2022-09-01T16:16:09.730Z,0.60
2022-09-01T16:19:09.612Z,1.00
2022-09-01T16:21:58.568Z,0.90
2022-09-01T16:24:32.166Z,1.00
2022-09-01T16:27:03.308Z,0.90
2022-09-01T16:29:55.430Z,0.60
2022-09-01T16:32:24.268Z,1.20
2022-09-01T16:34:54.668Z,1.10
2022-09-01T16:37:53.449Z,1.20
2022-09-01T16:41:05.458Z,0.80
2022-09-01T16:43:59.489Z,0.70
2022-09-01T16:46:45.604Z,0.80
2022-09-01T16:50:04.088Z,0.70
2022-09-01T16:52:58.988Z,0.90
2022-09-01T16:55:57.997Z,0.70
2022-09-01T16:59:13.934Z,1.00
2022-09-01T17:02:23.948Z,0.70
2022-09-01T17:05:22.128Z,1.00
2022-09-01T17:08:07.710Z,1.20
2022-09-01T17:10:47.868Z,1.30
2022-09-01T17:13:41.949Z,1.60
2022-09-01T17:16:22.043Z,1.40
2022-09-01T17:18:57.268Z,1.80
2022-09-01T17:21:45.069Z,1.40
2022-09-01T17:24:42.528Z,1.90
2022-09-01T17:27:20.010Z,1.90
2022-09-01T17:29:51.527Z,1.40
2022-09-01T17:36:46.126Z,1.20
2022-09-01T17:39:38.386Z,1.40
2022-09-01T17:42:38.485Z,1.60
2022-09-01T17:45:13.395Z,1.40
2022-09-01T17:48:15.845Z,1.40
2022-09-01T17:51:35.125Z,1.10
2022-09-01T17:54:18.035Z,1.00
2022-09-01T17:57:11.181Z,1.20
2022-09-01T18:00:01.280Z,1.00
2022-09-01T18:02:58.938Z,1.50
2022-09-01T18:05:30.038Z,1.40
2022-09-01T18:08:30.110Z,1.20
2022-09-01T18:11:43.347Z,1.80
2022-09-01T18:15:01.094Z,1.20
2022-09-01T18:18:00.908Z,1.40
2022-09-01T18:20:54.865Z,1.50
2022-09-01T18:23:25.324Z,1.50
2022-09-01T18:26:10.564Z,1.10
2022-09-01T18:28:39.356Z,1.30
2022-09-01T18:31:18.303Z,1.20
2022-09-01T18:34:16.374Z,1.80
2022-09-01T18:37:26.514Z,2.10
2022-09-01T18:40:19.736Z,1.60
2022-09-01T18:42:53.272Z,1.70
2022-09-01T18:46:09.130Z,2.00
2022-09-01T18:48:49.854Z,1.90
2022-09-01T18:51:34.906Z,2.30
2022-09-01T18:54:28.784Z,1.90
2022-09-01T18:57:01.773Z,1.90
2022-09-01T19:00:18.782Z,2.10
2022-09-01T19:03:24.453Z,1.90
2022-09-01T19:06:07.574Z,1.80
2022-09-01T19:08:52.328Z,2.20
2022-09-01T19:11:37.713Z,2.30
2022-09-01T19:14:51.353Z,2.20
2022-09-01T19:17:47.992Z,2.10
2022-09-01T19:20:36.606Z,2.10
2022-09-01T19:23:39.954Z,2.50
2022-09-01T19:26:21.684Z,2.40
2022-09-01T19:28:58.646Z,2.80
2022-09-01T19:31:45.634Z,3.20
2022-09-01T19:34:25.722Z,2.80
2022-09-01T19:37:00.070Z,4.40
2022-09-01T19:39:39.133Z,2.50
2022-09-01T19:42:47.973Z,1.90
2022-09-01T19:45:38.465Z,1.80
2022-09-01T19:48:18.176Z,1.20
2022-09-01T19:51:13.936Z,1.60
2022-09-01T19:54:27.481Z,1.40
2022-09-01T19:57:17.354Z,2.80
2022-09-01T19:59:52.819Z,3.50
2022-09-01T20:03:08.167Z,2.70
2022-09-01T20:06:17.161Z,2.20
2022-09-01T20:09:20.313Z,2.40
2022-09-01T20:11:57.995Z,2.80
2022-09-01T20:15:08.653Z,1.60
2022-09-01T20:17:58.723Z,1.70
2022-09-01T20:20:40.292Z,1.80
2022-09-01T20:23:44.994Z,2.30
2022-09-01T20:26:33.935Z,3.70
2022-09-01T20:29:26.614Z,3.40
2022-09-01T20:32:00.045Z,2.40
2022-09-01T20:34:53.453Z,1.50
2022-09-01T20:37:36.275Z,1.90
2022-09-01T20:40:18.116Z,2.00
2022-09-01T20:43:16.133Z,1.70
2022-09-01T20:45:46.466Z,1.20
2022-09-01T20:48:22.433Z,1.70
2022-09-01T20:51:12.172Z,1.60
2022-09-01T20:53:46.923Z,1.70
2022-09-01T20:56:34.254Z,1.40
2022-09-01T20:59:36.223Z,1.20
2022-09-01T21:02:29.337Z,1.80
2022-09-01T21:05:13.016Z,1.50
2022-09-01T21:08:14.995Z,1.70
2022-09-01T21:10:56.994Z,1.50
2022-09-01T21:13:44.016Z,1.80
2022-09-01T21:16:39.794Z,1.50
2022-09-01T21:19:52.756Z,1.70
2022-09-01T21:22:22.650Z,1.40
2022-09-01T21:24:51.971Z,1.20
2022-09-01T21:27:43.995Z,1.30
2022-09-01T21:30:15.852Z,1.30
2022-09-01T21:32:44.813Z,1.10
2022-09-01T21:35:18.600Z,1.70
2022-09-01T21:37:47.553Z,1.70
2022-09-01T21:40:19.882Z,1.60
2022-09-01T21:43:02.235Z,1.40
2022-09-01T21:45:35.722Z,1.50
2022-09-01T21:48:05.433Z,1.60
2022-09-01T21:50:34.693Z,1.30
2022-09-01T21:53:03.834Z,1.40
2022-09-01T21:55:33.453Z,1.90
2022-09-01T21:58:02.995Z,1.70
